createdAt,value
2022-12-09T00:02:20.631Z,33.47
2022-12-09T00:07:23.961Z,34.50
2022-12-09T00:12:27.487Z,32.20
2022-12-09T00:17:32.782Z,34.13
2022-12-09T00:22:35.922Z,35.92
2022-12-09T00:27:39.211Z,34.78
2022-12-09T00:32:43.790Z,35.95
2022-12-09T00:37:47.920Z,34.35
2022-12-09T00:42:52.164Z,34.17
2022-12-09T00:47:56.614Z,35.13
2022-12-09T00:52:59.679Z,32.17
2022-12-09T00:58:03.168Z,32.03
2022-12-09T01:03:07.937Z,32.80
2022-12-09T01:08:12.571Z,30.60
2022-12-09T01:13:16.921Z,29.02
2022-12-09T01:18:21.666Z,31.27
2022-12-09T01:23:24.918Z,31.05
2022-12-09T01:28:27.752Z,32.17
2022-12-09T01:33:32.236Z,30.40
2022-12-09T01:38:35.314Z,28.50
2022-12-09T01:43:39.353Z,28.60
2022-12-09T01:48:47.846Z,28.70
2022-12-09T01:53:53.073Z,29.33
2022-12-09T01:59:02.568Z,29.27
2022-12-09T02:04:07.245Z,28.27
2022-12-09T02:09:11.123Z,28.23
2022-12-09T02:14:25.237Z,29.25
2022-12-09T02:24:54.955Z,29.73
2022-12-09T02:30:09.776Z,30.05
2022-12-09T02:35:23.343Z,27.20
2022-12-09T02:40:33.035Z,26.77
2022-12-09T02:45:38.748Z,27.20
2022-12-09T02:50:46.298Z,26.13
2022-12-09T02:55:50.488Z,29.27
2022-12-09T03:00:56.491Z,25.15
2022-12-09T03:06:08.218Z,27.15
2022-12-09T03:11:14.382Z,25.93
2022-12-09T03:16:23.489Z,25.10
2022-12-09T03:21:33.320Z,25.55
2022-12-09T03:26:39.651Z,26.00
2022-12-09T03:31:43.820Z,22.70
2022-12-09T03:36:51.632Z,21.42
2022-12-09T03:41:58.403Z,18.02
2022-12-09T03:47:01.786Z,18.52
2022-12-09T03:52:12.222Z,17.10
2022-12-09T03:57:19.300Z,14.18
2022-12-09T04:02:23.619Z,12.32
2022-12-09T04:07:28.430Z,11.07
2022-12-09T04:12:31.512Z,10.65
2022-12-09T04:17:34.330Z,10.20
2022-12-09T04:22:38.850Z,10.60
2022-12-09T04:27:41.733Z,10.73
2022-12-09T04:32:45.135Z,10.07
2022-12-09T04:37:50.433Z,10.80
2022-12-09T04:42:53.525Z,10.55
2022-12-09T04:47:56.567Z,11.52
2022-12-09T04:53:01.130Z,12.95
2022-12-09T04:58:04.058Z,11.77
2022-12-09T05:03:07.273Z,11.65
2022-12-09T05:08:11.622Z,12.38
2022-12-09T05:13:15.159Z,12.35
2022-12-09T05:18:18.296Z,12.40
2022-12-09T05:23:23.255Z,13.02
2022-12-09T05:28:26.298Z,11.98
2022-12-09T05:33:29.580Z,15.18
2022-12-09T05:38:33.937Z,15.05
2022-12-09T05:43:37.737Z,14.07
2022-12-09T05:48:41.574Z,13.88
2022-12-09T05:53:46.344Z,14.18
2022-12-09T05:58:49.316Z,15.50
2022-12-09T06:03:54.191Z,15.82
2022-12-09T06:09:00.933Z,15.43
2022-12-09T06:14:04.972Z,16.13
2022-12-09T06:19:08.160Z,15.00
2022-12-09T06:24:12.556Z,17.17
2022-12-09T06:29:15.799Z,16.67
2022-12-09T06:34:18.837Z,16.75
2022-12-09T06:39:23.422Z,16.05
2022-12-09T06:44:26.395Z,16.55
2022-12-09T06:49:29.540Z,15.88
2022-12-09T06:54:35.296Z,15.27
2022-12-09T06:59:38.239Z,16.10
2022-12-09T07:04:41.436Z,16.92
2022-12-09T07:09:45.829Z,16.38
2022-12-09T07:14:49.262Z,17.50
2022-12-09T07:19:52.182Z,17.70
2022-12-09T07:24:57.259Z,19.77
2022-12-09T07:30:00.524Z,18.52
2022-12-09T07:35:03.911Z,17.98
2022-12-09T07:40:09.348Z,19.98
2022-12-09T07:45:13.386Z,21.83
2022-12-09T07:50:17.205Z,15.40
2022-12-09T07:55:21.575Z,35.72
2022-12-09T08:00:24.508Z,13.57
2022-12-09T08:05:27.458Z,15.25
2022-12-09T08:10:31.830Z,16.00
2022-12-09T08:15:34.741Z,17.05
2022-12-09T08:20:38.539Z,19.40
2022-12-09T08:25:43.297Z,21.17
2022-12-09T08:30:46.500Z,21.98
2022-12-09T08:35:50.142Z,21.52
2022-12-09T08:40:54.766Z,22.15
2022-12-09T08:46:01.790Z,22.42
2022-12-09T08:51:05.861Z,23.27
2022-12-09T08:56:12.242Z,23.33
2022-12-09T09:01:17.424Z,21.85
2022-12-09T09:06:21.147Z,22.02
2022-12-09T09:11:26.941Z,23.20
2022-12-09T09:16:30.047Z,24.00
2022-12-09T09:21:34.575Z,22.65
2022-12-09T09:26:40.896Z,21.48
2022-12-09T09:31:44.239Z,23.48
2022-12-09T09:36:47.793Z,23.27
2022-12-09T09:41:55.493Z,19.20
2022-12-09T09:47:00.607Z,20.35
2022-12-09T09:52:09.616Z,22.02
2022-12-09T09:57:18.795Z,20.38
2022-12-09T10:02:37.914Z,21.52
2022-12-09T10:07:43.664Z,22.42
2022-12-09T10:13:08.078Z,21.95
2022-12-09T10:18:19.160Z,18.50
2022-12-09T10:23:23.419Z,16.75
2022-12-09T10:28:31.984Z,15.85
2022-12-09T10:33:39.010Z,17.27
2022-12-09T10:38:42.726Z,16.38
2022-12-09T10:43:47.335Z,17.52
2022-12-09T10:48:58.799Z,17.98
2022-12-09T10:54:05.023Z,15.93
2022-12-09T10:59:20.503Z,15.80
2022-12-09T11:04:26.374Z,14.45
2022-12-09T11:09:32.672Z,14.00
2022-12-09T11:14:40.475Z,16.15
2022-12-09T11:19:45.573Z,17.08
2022-12-09T11:24:49.046Z,18.75
2022-12-09T11:30:12.480Z,20.02
2022-12-09T11:35:18.937Z,18.55
2022-12-09T11:40:22.913Z,18.90
2022-12-09T11:45:30.904Z,19.23
2022-12-09T11:50:36.500Z,18.98
2022-12-09T11:55:45.095Z,19.13
2022-12-09T12:00:59.343Z,17.27
2022-12-09T12:06:05.147Z,18.55
2022-12-09T12:11:15.053Z,16.83
2022-12-09T12:16:27.278Z,18.08
2022-12-09T12:21:47.029Z,19.13
2022-12-09T12:27:04.794Z,18.13
2022-12-09T12:32:40.400Z,19.10
2022-12-09T12:37:51.790Z,18.08
2022-12-09T12:43:23.680Z,18.88
2022-12-09T12:48:35.179Z,19.53
2022-12-09T12:53:46.701Z,21.25
2022-12-09T12:59:02.858Z,19.67
2022-12-09T13:04:18.648Z,20.75
2022-12-09T13:09:26.684Z,19.05
2022-12-09T13:14:34.187Z,19.13
2022-12-09T13:19:42.670Z,18.77
2022-12-09T13:24:56.857Z,19.10
2022-12-09T13:30:07.619Z,19.30
2022-12-09T13:35:17.700Z,20.30
2022-12-09T13:40:36.646Z,17.92
2022-12-09T13:45:50.217Z,19.73
2022-12-09T13:50:59.598Z,17.67
2022-12-09T13:56:05.583Z,18.10
2022-12-09T14:01:19.287Z,18.48
2022-12-09T14:06:27.547Z,19.08
2022-12-09T14:11:48.480Z,19.00
2022-12-09T14:16:51.968Z,17.17
2022-12-09T14:22:56.657Z,18.13
2022-12-09T14:28:36.256Z,20.42
2022-12-09T14:33:42.163Z,17.10
2022-12-09T14:39:15.763Z,18.40
2022-12-09T14:44:26.420Z,20.52
2022-12-09T14:49:30.949Z,20.40
2022-12-09T14:54:36.568Z,20.95
2022-12-09T14:59:49.178Z,19.73
2022-12-09T15:09:57.949Z,18.80
2022-12-09T15:15:06.960Z,19.70
2022-12-09T15:20:23.656Z,19.42
2022-12-09T15:25:27.385Z,20.48
2022-12-09T15:30:34.367Z,18.02
2022-12-09T15:35:37.359Z,20.77
2022-12-09T15:41:00.324Z,18.15
2022-12-09T15:46:05.438Z,20.85
2022-12-09T15:51:15.236Z,19.42
2022-12-09T15:56:23.284Z,21.33
2022-12-09T16:01:30.641Z,23.42
2022-12-09T16:06:36.192Z,20.55
2022-12-09T16:11:40.778Z,21.10
2022-12-09T16:16:48.194Z,21.42
2022-12-09T16:21:54.251Z,21.35
2022-12-09T16:26:57.610Z,20.88
2022-12-09T16:32:21.715Z,22.42
2022-12-09T16:37:37.344Z,22.55
2022-12-09T16:42:41.129Z,22.52
2022-12-09T16:47:46.156Z,25.35
2022-12-09T16:52:49.286Z,25.20
2022-12-09T16:57:52.607Z,25.00
2022-12-09T17:03:02.646Z,26.63
2022-12-09T17:08:05.910Z,24.92
2022-12-09T17:13:08.699Z,27.23
2022-12-09T17:18:12.860Z,25.38
2022-12-09T17:23:15.612Z,25.75
2022-12-09T17:28:18.368Z,31.55
2022-12-09T17:33:25.245Z,28.15
2022-12-09T17:38:30.330Z,24.88
2022-12-09T17:43:33.523Z,25.00
2022-12-09T17:48:39.389Z,25.40
2022-12-09T17:53:43.503Z,26.70
2022-12-09T17:58:47.205Z,26.73
2022-12-09T18:03:56.596Z,27.33
2022-12-09T18:09:00.861Z,27.77
2022-12-09T18:14:04.182Z,27.38
2022-12-09T18:19:12.701Z,26.73
2022-12-09T18:24:15.528Z,29.10
2022-12-09T18:29:18.393Z,28.45
2022-12-09T18:34:23.183Z,33.85
2022-12-09T18:39:25.935Z,28.73
2022-12-09T18:44:28.699Z,30.15
2022-12-09T18:49:32.846Z,31.55
2022-12-09T18:54:36.530Z,31.20
2022-12-09T18:59:39.316Z,30.45
2022-12-09T19:04:43.631Z,31.90
2022-12-09T19:09:46.492Z,29.83
2022-12-09T19:14:49.284Z,27.50
2022-12-09T19:19:53.422Z,28.75
2022-12-09T19:24:56.146Z,28.83
2022-12-09T19:29:58.953Z,30.77
2022-12-09T19:35:03.283Z,35.00
2022-12-09T19:40:08.439Z,35.22
2022-12-09T19:45:14.343Z,32.90
2022-12-09T19:50:19.878Z,34.72
2022-12-09T19:55:22.647Z,31.40
2022-12-09T20:00:25.459Z,31.52
2022-12-09T20:05:29.636Z,29.88
2022-12-09T20:10:32.414Z,29.42
2022-12-09T20:15:37.456Z,29.35
2022-12-09T20:20:47.177Z,28.85
2022-12-09T20:25:51.497Z,28.83
2022-12-09T20:30:54.377Z,28.30
2022-12-09T20:36:04.581Z,27.55
2022-12-09T20:41:11.028Z,26.27
2022-12-09T20:46:16.339Z,26.33
2022-12-09T20:51:23.688Z,28.02
2022-12-09T20:56:27.835Z,27.33
2022-12-09T21:01:32.640Z,29.77
2022-12-09T21:06:39.376Z,30.23
2022-12-09T21:11:42.269Z,28.70
2022-12-09T21:16:46.843Z,29.23
2022-12-09T21:21:50.932Z,27.30
2022-12-09T21:26:55.957Z,29.10
2022-12-09T21:31:58.656Z,31.23
2022-12-09T21:37:02.904Z,30.00
2022-12-09T21:42:05.847Z,31.48
2022-12-09T21:47:08.555Z,38.22
2022-12-09T21:52:12.625Z,43.10
2022-12-09T21:57:15.562Z,43.80
2022-12-09T22:02:18.388Z,40.47
2022-12-09T22:07:22.549Z,40.65
2022-12-09T22:12:25.360Z,43.13
2022-12-09T22:17:28.252Z,45.15
2022-12-09T22:22:32.348Z,44.92
2022-12-09T22:27:35.261Z,44.10
2022-12-09T22:32:41.544Z,44.78
2022-12-09T22:37:48.049Z,44.50
2022-12-09T22:42:51.339Z,43.97
2022-12-09T22:47:55.342Z,45.42
2022-12-09T22:52:59.466Z,44.53
2022-12-09T22:58:02.271Z,38.13
2022-12-09T23:03:05.215Z,38.03
2022-12-09T23:08:09.557Z,39.38
2022-12-09T23:13:12.537Z,37.45
2022-12-09T23:18:15.356Z,36.47
2022-12-09T23:23:20.561Z,36.78
2022-12-09T23:28:23.297Z,40.22
2022-12-09T23:33:26.070Z,41.47
2022-12-09T23:38:30.177Z,39.45
2022-12-09T23:43:33.811Z,36.85
2022-12-09T23:48:37.064Z,37.85
2022-12-09T23:53:42.303Z,38.00
2022-12-09T23:58:45.679Z,39.67
